sensor_id;sensor_type;location;lat;lon;timestamp;pressure;altitude;pressure_sealevel;temperature;humidity
49585;BME280;35491;49.142;9.210;2024-03-02T00:00:13;98762.72;;;8.77;70.72
49585;BME280;35491;49.142;9.210;2024-03-02T00:02:14;98755.22;;;8.80;70.54
49585;BME280;35491;49.142;9.210;2024-03-02T00:04:15;98759.22;;;8.76;70.73
49585;BME280;35491;49.142;9.210;2024-03-02T00:06:20;98750.56;;;8.74;70.63
49585;BME280;35491;49.142;9.210;2024-03-02T00:08:23;98756.22;;;8.71;70.75
49585;BME280;35491;49.142;9.210;2024-03-02T00:10:38;98750.38;;;8.59;71.31
49585;BME280;35491;49.142;9.210;2024-03-02T00:12:42;98752.22;;;8.58;71.38
49585;BME280;35491;49.142;9.210;2024-03-02T00:14:43;98749.38;;;8.68;71.11
49585;BME280;35491;49.142;9.210;2024-03-02T00:16:44;98751.72;;;8.63;71.32
49585;BME280;35491;49.142;9.210;2024-03-02T00:18:44;98750.56;;;8.66;71.28
49585;BME280;35491;49.142;9.210;2024-03-02T00:20:45;98747.22;;;8.72;71.10
49585;BME280;35491;49.142;9.210;2024-03-02T00:22:46;98744.06;;;8.77;70.92
49585;BME280;35491;49.142;9.210;2024-03-02T00:24:46;98735.88;;;8.70;71.22
49585;BME280;35491;49.142;9.210;2024-03-02T00:26:47;98741.41;;;8.68;71.27
49585;BME280;35491;49.142;9.210;2024-03-02T00:28:48;98747.56;;;8.69;71.16
49585;BME280;35491;49.142;9.210;2024-03-02T00:33:10;98746.72;;;8.77;70.92
49585;BME280;35491;49.142;9.210;2024-03-02T00:35:10;98737.06;;;8.76;71.15
49585;BME280;35491;49.142;9.210;2024-03-02T00:37:11;98750.56;;;8.74;71.00
49585;BME280;35491;49.142;9.210;2024-03-02T00:39:12;98758.56;;;8.66;71.26
49585;BME280;35491;49.142;9.210;2024-03-02T00:41:27;98758.38;;;8.76;71.23
49585;BME280;35491;49.142;9.210;2024-03-02T00:43:38;98761.22;;;8.74;70.94
49585;BME280;35491;49.142;9.210;2024-03-02T00:45:41;98757.25;;;8.78;70.98
49585;BME280;35491;49.142;9.210;2024-03-02T00:47:42;98752.91;;;8.85;70.79
49585;BME280;35491;49.142;9.210;2024-03-02T00:49:46;98755.72;;;8.84;70.85
49585;BME280;35491;49.142;9.210;2024-03-02T00:51:49;98756.06;;;8.81;70.92
49585;BME280;35491;49.142;9.210;2024-03-02T00:53:52;98748.22;;;8.79;71.01
49585;BME280;35491;49.142;9.210;2024-03-02T00:55:56;98751.75;;;8.80;70.90
49585;BME280;35491;49.142;9.210;2024-03-02T00:57:57;98740.59;;;8.76;70.99
49585;BME280;35491;49.142;9.210;2024-03-02T00:59:58;98738.56;;;8.70;71.61
49585;BME280;35491;49.142;9.210;2024-03-02T01:01:59;98747.41;;;8.70;71.11
49585;BME280;35491;49.142;9.210;2024-03-02T01:04:00;98744.25;;;8.75;71.10
49585;BME280;35491;49.142;9.210;2024-03-02T01:06:00;98744.56;;;8.72;71.22
49585;BME280;35491;49.142;9.210;2024-03-02T01:08:01;98743.56;;;8.73;71.19
49585;BME280;35491;49.142;9.210;2024-03-02T01:10:02;98740.22;;;8.71;71.32
49585;BME280;35491;49.142;9.210;2024-03-02T01:12:04;98739.25;;;8.80;71.07
49585;BME280;35491;49.142;9.210;2024-03-02T01:14:05;98740.59;;;8.84;70.83
49585;BME280;35491;49.142;9.210;2024-03-02T01:16:06;98735.25;;;8.84;70.84
49585;BME280;35491;49.142;9.210;2024-03-02T01:18:07;98736.06;;;8.77;71.11
49585;BME280;35491;49.142;9.210;2024-03-02T01:20:08;98739.75;;;8.84;70.67
49585;BME280;35491;49.142;9.210;2024-03-02T01:22:10;98739.09;;;8.90;70.53
49585;BME280;35491;49.142;9.210;2024-03-02T01:24:10;98739.09;;;8.90;70.33
49585;BME280;35491;49.142;9.210;2024-03-02T01:26:11;98726.59;;;8.99;69.98
49585;BME280;35491;49.142;9.210;2024-03-02T01:28:11;98730.41;;;9.04;69.64
49585;BME280;35491;49.142;9.210;2024-03-02T01:30:13;98722.09;;;9.08;69.53
49585;BME280;35491;49.142;9.210;2024-03-02T01:32:14;98725.09;;;9.04;69.21
49585;BME280;35491;49.142;9.210;2024-03-02T01:34:14;98730.59;;;9.11;69.08
49585;BME280;35491;49.142;9.210;2024-03-02T01:36:15;98738.41;;;9.13;68.77
49585;BME280;35491;49.142;9.210;2024-03-02T01:38:16;98741.56;;;9.08;68.74
49585;BME280;35491;49.142;9.210;2024-03-02T01:40:16;98731.56;;;9.18;68.31
49585;BME280;35491;49.142;9.210;2024-03-02T01:42:17;98733.25;;;9.19;68.19
49585;BME280;35491;49.142;9.210;2024-03-02T01:44:18;98729.41;;;9.22;67.98
49585;BME280;35491;49.142;9.210;2024-03-02T01:46:19;98722.41;;;9.13;68.05
49585;BME280;35491;49.142;9.210;2024-03-02T01:48:19;98717.25;;;9.19;67.65
49585;BME280;35491;49.142;9.210;2024-03-02T01:50:31;98718.09;;;9.20;67.05
49585;BME280;35491;49.142;9.210;2024-03-02T01:52:32;98719.41;;;9.24;67.25
49585;BME280;35491;49.142;9.210;2024-03-02T01:54:33;98713.25;;;9.24;67.38
49585;BME280;35491;49.142;9.210;2024-03-02T01:56:33;98714.25;;;9.23;67.36
49585;BME280;35491;49.142;9.210;2024-03-02T01:58:34;98709.59;;;9.25;67.17
49585;BME280;35491;49.142;9.210;2024-03-02T02:00:35;98712.91;;;9.18;67.09
49585;BME280;35491;49.142;9.210;2024-03-02T02:02:36;98701.56;;;9.16;67.11
49585;BME280;35491;49.142;9.210;2024-03-02T02:04:36;98704.25;;;9.08;67.27
49585;BME280;35491;49.142;9.210;2024-03-02T02:06:37;98711.25;;;9.09;67.12
49585;BME280;35491;49.142;9.210;2024-03-02T02:08:37;98711.91;;;9.19;66.77
49585;BME280;35491;49.142;9.210;2024-03-02T02:10:38;98716.94;;;9.14;66.92
49585;BME280;35491;49.142;9.210;2024-03-02T02:12:39;98711.59;;;9.23;66.42
49585;BME280;35491;49.142;9.210;2024-03-02T02:14:47;98707.59;;;9.10;66.24
49585;BME280;35491;49.142;9.210;2024-03-02T02:16:48;98704.94;;;9.02;66.63
49585;BME280;35491;49.142;9.210;2024-03-02T02:18:48;98705.75;;;9.02;66.49
49585;BME280;35491;49.142;9.210;2024-03-02T02:20:49;98710.44;;;9.09;66.34
49585;BME280;35491;49.142;9.210;2024-03-02T02:23:02;98707.06;;;9.23;65.61
49585;BME280;35491;49.142;9.210;2024-03-02T02:25:03;98703.09;;;9.11;66.09
49585;BME280;35491;49.142;9.210;2024-03-02T02:27:04;98708.75;;;9.08;66.21
49585;BME280;35491;49.142;9.210;2024-03-02T02:29:05;98702.25;;;9.10;65.96
49585;BME280;35491;49.142;9.210;2024-03-02T02:31:06;98701.09;;;9.13;66.00
49585;BME280;35491;49.142;9.210;2024-03-02T02:33:06;98704.09;;;9.18;65.71
49585;BME280;35491;49.142;9.210;2024-03-02T02:35:07;98696.59;;;9.21;65.47
49585;BME280;35491;49.142;9.210;2024-03-02T02:37:09;98700.44;;;9.11;65.79
49585;BME280;35491;49.142;9.210;2024-03-02T02:39:13;98690.28;;;9.14;65.70
49585;BME280;35491;49.142;9.210;2024-03-02T02:41:15;98690.28;;;9.14;65.56
49585;BME280;35491;49.142;9.210;2024-03-02T02:43:15;98679.91;;;9.19;65.29
49585;BME280;35491;49.142;9.210;2024-03-02T02:45:16;98690.25;;;9.23;65.29
49585;BME280;35491;49.142;9.210;2024-03-02T02:47:17;98688.91;;;9.18;65.45
49585;BME280;35491;49.142;9.210;2024-03-02T02:49:17;98679.75;;;9.13;65.34
49585;BME280;35491;49.142;9.210;2024-03-02T02:51:18;98682.59;;;9.11;65.57
49585;BME280;35491;49.142;9.210;2024-03-02T02:53:18;98674.59;;;9.11;65.46
49585;BME280;35491;49.142;9.210;2024-03-02T02:55:19;98671.13;;;9.11;65.61
49585;BME280;35491;49.142;9.210;2024-03-02T02:57:20;98676.44;;;9.02;65.66
49585;BME280;35491;49.142;9.210;2024-03-02T02:59:20;98672.09;;;8.93;65.85
49585;BME280;35491;49.142;9.210;2024-03-02T03:01:21;98676.94;;;8.98;65.70
49585;BME280;35491;49.142;9.210;2024-03-02T03:03:21;98676.59;;;9.01;65.66
49585;BME280;35491;49.142;9.210;2024-03-02T03:05:22;98677.09;;;9.04;65.39
49585;BME280;35491;49.142;9.210;2024-03-02T03:07:23;98674.78;;;8.93;65.58
49585;BME280;35491;49.142;9.210;2024-03-02T03:09:23;98677.28;;;9.03;65.37
49585;BME280;35491;49.142;9.210;2024-03-02T03:11:24;98679.75;;;9.13;64.99
49585;BME280;35491;49.142;9.210;2024-03-02T03:13:26;98676.78;;;9.08;65.13
49585;BME280;35491;49.142;9.210;2024-03-02T03:15:26;98684.59;;;9.01;65.47
49585;BME280;35491;49.142;9.210;2024-03-02T03:17:27;98676.94;;;9.06;65.26
49585;BME280;35491;49.142;9.210;2024-03-02T03:19:27;98681.25;;;9.07;65.06
49585;BME280;35491;49.142;9.210;2024-03-02T03:21:28;98683.59;;;9.10;65.21
49585;BME280;35491;49.142;9.210;2024-03-02T03:23:28;98684.44;;;9.11;65.24
49585;BME280;35491;49.142;9.210;2024-03-02T03:25:29;98686.59;;;9.15;64.99
49585;BME280;35491;49.142;9.210;2024-03-02T03:27:30;98687.44;;;9.16;64.78
49585;BME280;35491;49.142;9.210;2024-03-02T03:29:31;98689.25;;;9.07;65.28
49585;BME280;35491;49.142;9.210;2024-03-02T03:31:31;98681.94;;;9.01;65.29
49585;BME280;35491;49.142;9.210;2024-03-02T03:33:31;98687.09;;;9.02;65.22
49585;BME280;35491;49.142;9.210;2024-03-02T03:35:32;98693.94;;;8.88;65.74
49585;BME280;35491;49.142;9.210;2024-03-02T03:37:33;98688.47;;;8.90;65.76
49585;BME280;35491;49.142;9.210;2024-03-02T03:39:36;98687.09;;;8.94;65.54
49585;BME280;35491;49.142;9.210;2024-03-02T03:41:37;98692.63;;;8.84;65.80
49585;BME280;35491;49.142;9.210;2024-03-02T03:43:37;98695.09;;;8.69;66.20
49585;BME280;35491;49.142;9.210;2024-03-02T03:45:39;98688.78;;;8.79;66.00
49585;BME280;35491;49.142;9.210;2024-03-02T03:47:39;98689.47;;;8.72;66.00
49585;BME280;35491;49.142;9.210;2024-03-02T03:49:41;98691.78;;;8.67;66.24
49585;BME280;35491;49.142;9.210;2024-03-02T03:51:41;98693.78;;;8.73;66.04
49585;BME280;35491;49.142;9.210;2024-03-02T03:53:42;98696.59;;;8.80;65.86
49585;BME280;35491;49.142;9.210;2024-03-02T03:55:42;98683.63;;;8.85;65.58
49585;BME280;35491;49.142;9.210;2024-03-02T03:57:43;98682.44;;;8.88;65.49
49585;BME280;35491;49.142;9.210;2024-03-02T03:59:43;98685.94;;;8.88;65.42
49585;BME280;35491;49.142;9.210;2024-03-02T04:01:44;98688.59;;;8.80;65.78
49585;BME280;35491;49.142;9.210;2024-03-02T04:03:45;98691.28;;;8.72;66.00
49585;BME280;35491;49.142;9.210;2024-03-02T04:05:45;98688.28;;;8.75;66.10
49585;BME280;35491;49.142;9.210;2024-03-02T04:07:45;98685.63;;;8.67;66.21
49585;BME280;35491;49.142;9.210;2024-03-02T04:09:46;98682.28;;;8.73;66.04
49585;BME280;35491;49.142;9.210;2024-03-02T04:11:46;98681.78;;;8.69;65.99
49585;BME280;35491;49.142;9.210;2024-03-02T04:13:47;98690.59;;;8.70;65.93
49585;BME280;35491;49.142;9.210;2024-03-02T04:15:47;98687.94;;;8.62;66.02
49585;BME280;35491;49.142;9.210;2024-03-02T04:17:47;98691.53;;;8.44;66.56
49585;BME280;35491;49.142;9.210;2024-03-02T04:19:48;98691.75;;;8.51;66.29
49585;BME280;35491;49.142;9.210;2024-03-02T04:21:48;98694.59;;;8.49;66.21
49585;BME280;35491;49.142;9.210;2024-03-02T04:23:49;98693.38;;;8.35;66.69
49585;BME280;35491;49.142;9.210;2024-03-02T04:25:53;98692.53;;;8.35;66.71
49585;BME280;35491;49.142;9.210;2024-03-02T04:27:54;98687.69;;;8.22;67.15
49585;BME280;35491;49.142;9.210;2024-03-02T04:29:58;98693.16;;;8.12;67.48
49585;BME280;35491;49.142;9.210;2024-03-02T04:32:06;98704.22;;;7.91;68.43
49585;BME280;35491;49.142;9.210;2024-03-02T04:34:07;98696.78;;;8.03;68.03
49585;BME280;35491;49.142;9.210;2024-03-02T04:36:08;98701.34;;;7.84;68.84
49585;BME280;35491;49.142;9.210;2024-03-02T04:38:09;98696.44;;;7.97;68.08
49585;BME280;35491;49.142;9.210;2024-03-02T04:40:10;98699.94;;;7.98;67.82
49585;BME280;35491;49.142;9.210;2024-03-02T04:42:11;98707.38;;;7.94;67.90
49585;BME280;35491;49.142;9.210;2024-03-02T04:44:11;98697.22;;;7.90;67.72
49585;BME280;35491;49.142;9.210;2024-03-02T04:46:12;98692.72;;;7.82;67.93
49585;BME280;35491;49.142;9.210;2024-03-02T04:48:13;98697.69;;;7.85;68.13
49585;BME280;35491;49.142;9.210;2024-03-02T04:50:14;98692.38;;;7.85;67.99
49585;BME280;35491;49.142;9.210;2024-03-02T04:52:15;98696.88;;;7.85;67.85
49585;BME280;35491;49.142;9.210;2024-03-02T04:54:16;98699.34;;;7.78;68.03
49585;BME280;35491;49.142;9.210;2024-03-02T04:56:16;98704.94;;;7.67;68.24
49585;BME280;35491;49.142;9.210;2024-03-02T04:58:22;98717.84;;;7.53;68.76
49585;BME280;35491;49.142;9.210;2024-03-02T05:00:23;98712.19;;;7.56;68.69
49585;BME280;35491;49.142;9.210;2024-03-02T05:02:23;98704.13;;;7.40;69.02
49585;BME280;35491;49.142;9.210;2024-03-02T05:04:24;98702.75;;;7.27;69.32
49585;BME280;35491;49.142;9.210;2024-03-02T05:06:24;98699.72;;;7.22;69.60
49585;BME280;35491;49.142;9.210;2024-03-02T05:08:25;98701.34;;;7.15;69.81
49585;BME280;35491;49.142;9.210;2024-03-02T05:10:26;98700.94;;;7.10;70.08
49585;BME280;35491;49.142;9.210;2024-03-02T05:12:27;98694.88;;;7.17;69.78
49585;BME280;35491;49.142;9.210;2024-03-02T05:14:42;98699.25;;;7.27;69.58
49585;BME280;35491;49.142;9.210;2024-03-02T05:16:43;98702.06;;;7.25;69.69
49585;BME280;35491;49.142;9.210;2024-03-02T05:18:43;98694.13;;;7.33;69.49
49585;BME280;35491;49.142;9.210;2024-03-02T05:20:44;98697.16;;;7.39;69.31
49585;BME280;35491;49.142;9.210;2024-03-02T05:22:45;98701.47;;;7.40;69.43
49585;BME280;35491;49.142;9.210;2024-03-02T05:24:45;98702.19;;;7.24;70.16
49585;BME280;35491;49.142;9.210;2024-03-02T05:26:45;98708.41;;;7.32;69.91
49585;BME280;35491;49.142;9.210;2024-03-02T05:28:46;98703.41;;;7.29;69.70
49585;BME280;35491;49.142;9.210;2024-03-02T05:30:47;98705.06;;;7.30;69.73
49585;BME280;35491;49.142;9.210;2024-03-02T05:32:47;98709.09;;;7.34;69.52
49585;BME280;35491;49.142;9.210;2024-03-02T05:34:48;98709.63;;;7.38;69.27
49585;BME280;35491;49.142;9.210;2024-03-02T05:36:48;98708.31;;;7.16;69.84
49585;BME280;35491;49.142;9.210;2024-03-02T05:38:49;98717.28;;;7.15;69.92
49585;BME280;35491;49.142;9.210;2024-03-02T05:40:49;98710.38;;;7.04;70.12
49585;BME280;35491;49.142;9.210;2024-03-02T05:42:50;98710.13;;;6.89;70.58
49585;BME280;35491;49.142;9.210;2024-03-02T05:44:50;98710.59;;;6.84;70.61
49585;BME280;35491;49.142;9.210;2024-03-02T05:46:50;98713.69;;;6.80;70.87
49585;BME280;35491;49.142;9.210;2024-03-02T05:48:51;98715.59;;;6.69;70.92
49585;BME280;35491;49.142;9.210;2024-03-02T05:50:52;98723.41;;;6.71;70.90
49585;BME280;35491;49.142;9.210;2024-03-02T05:52:52;98722.94;;;6.76;70.67
49585;BME280;35491;49.142;9.210;2024-03-02T05:54:52;98724.91;;;6.74;70.58
49585;BME280;35491;49.142;9.210;2024-03-02T05:56:53;98717.28;;;6.70;70.74
49585;BME280;35491;49.142;9.210;2024-03-02T05:58:54;98723.94;;;6.75;70.58
49585;BME280;35491;49.142;9.210;2024-03-02T06:01:13;98722.66;;;6.79;70.16
49585;BME280;35491;49.142;9.210;2024-03-02T06:03:13;98715.50;;;6.79;70.19
49585;BME280;35491;49.142;9.210;2024-03-02T06:05:14;98725.75;;;6.74;70.31
49585;BME280;35491;49.142;9.210;2024-03-02T06:07:15;98719.69;;;6.64;70.34
49585;BME280;35491;49.142;9.210;2024-03-02T06:09:16;98723.09;;;6.56;70.71
49585;BME280;35491;49.142;9.210;2024-03-02T06:11:17;98728.41;;;6.56;70.95
49585;BME280;35491;49.142;9.210;2024-03-02T06:13:19;98730.84;;;6.67;70.57
49585;BME280;35491;49.142;9.210;2024-03-02T06:15:19;98733.63;;;6.48;71.17
49585;BME280;35491;49.142;9.210;2024-03-02T06:17:20;98731.75;;;6.58;71.03
49585;BME280;35491;49.142;9.210;2024-03-02T06:19:20;98738.75;;;6.59;70.95
49585;BME280;35491;49.142;9.210;2024-03-02T06:21:21;98738.28;;;6.64;70.83
49585;BME280;35491;49.142;9.210;2024-03-02T06:23:21;98748.13;;;6.71;70.63
49585;BME280;35491;49.142;9.210;2024-03-02T06:25:22;98748.81;;;6.74;70.53
49585;BME280;35491;49.142;9.210;2024-03-02T06:27:22;98759.22;;;6.67;70.48
49585;BME280;35491;49.142;9.210;2024-03-02T06:29:22;98762.75;;;6.58;70.82
49585;BME280;35491;49.142;9.210;2024-03-02T06:31:23;98767.38;;;6.37;71.44
49585;BME280;35491;49.142;9.210;2024-03-02T06:33:23;98756.34;;;6.14;72.29
49585;BME280;35491;49.142;9.210;2024-03-02T06:35:24;98755.25;;;5.97;73.12
49585;BME280;35491;49.142;9.210;2024-03-02T06:37:24;98755.38;;;6.05;72.68
49585;BME280;35491;49.142;9.210;2024-03-02T06:39:25;98757.56;;;5.82;73.53
49585;BME280;35491;49.142;9.210;2024-03-02T06:41:25;98749.38;;;5.75;73.86
49585;BME280;35491;49.142;9.210;2024-03-02T06:43:26;98742.19;;;5.86;73.68
49585;BME280;35491;49.142;9.210;2024-03-02T06:45:27;98748.06;;;5.89;73.60
49585;BME280;35491;49.142;9.210;2024-03-02T06:47:27;98751.16;;;5.85;73.72
49585;BME280;35491;49.142;9.210;2024-03-02T06:49:28;98755.84;;;5.91;73.64
49585;BME280;35491;49.142;9.210;2024-03-02T06:51:28;98750.81;;;5.98;73.42
49585;BME280;35491;49.142;9.210;2024-03-02T06:53:29;98749.09;;;6.06;73.09
49585;BME280;35491;49.142;9.210;2024-03-02T06:55:30;98749.91;;;6.17;72.62
49585;BME280;35491;49.142;9.210;2024-03-02T06:57:31;98745.47;;;6.07;72.85
49585;BME280;35491;49.142;9.210;2024-03-02T06:59:31;98760.81;;;6.14;72.68
49585;BME280;35491;49.142;9.210;2024-03-02T07:01:33;98759.69;;;6.16;72.70
49585;BME280;35491;49.142;9.210;2024-03-02T07:03:34;98760.69;;;6.33;72.55
49585;BME280;35491;49.142;9.210;2024-03-02T07:05:35;98761.16;;;6.47;72.01
49585;BME280;35491;49.142;9.210;2024-03-02T07:07:36;98762.31;;;6.44;71.94
49585;BME280;35491;49.142;9.210;2024-03-02T07:09:36;98768.84;;;6.50;71.92
49585;BME280;35491;49.142;9.210;2024-03-02T07:11:37;98769.16;;;6.65;71.53
49585;BME280;35491;49.142;9.210;2024-03-02T07:13:37;98769.75;;;6.59;71.89
49585;BME280;35491;49.142;9.210;2024-03-02T07:15:38;98765.75;;;6.72;71.49
49585;BME280;35491;49.142;9.210;2024-03-02T07:18:08;98767.88;;;6.87;71.10
49585;BME280;35491;49.142;9.210;2024-03-02T07:20:09;98757.63;;;6.92;70.91
49585;BME280;35491;49.142;9.210;2024-03-02T07:22:09;98758.59;;;6.91;70.71
49585;BME280;35491;49.142;9.210;2024-03-02T07:24:10;98748.59;;;6.85;70.98
49585;BME280;35491;49.142;9.210;2024-03-02T07:26:13;98748.38;;;6.78;71.39
49585;BME280;35491;49.142;9.210;2024-03-02T07:28:15;98750.19;;;6.78;71.58
49585;BME280;35491;49.142;9.210;2024-03-02T07:30:16;98755.06;;;6.82;71.54
49585;BME280;35491;49.142;9.210;2024-03-02T07:32:17;98761.41;;;6.90;71.36
49585;BME280;35491;49.142;9.210;2024-03-02T07:34:17;98765.75;;;6.91;71.48
49585;BME280;35491;49.142;9.210;2024-03-02T07:36:18;98761.03;;;7.02;71.23
49585;BME280;35491;49.142;9.210;2024-03-02T07:38:19;98763.81;;;7.19;70.79
49585;BME280;35491;49.142;9.210;2024-03-02T07:40:20;98759.75;;;7.33;70.39
49585;BME280;35491;49.142;9.210;2024-03-02T07:42:20;98757.56;;;7.28;70.38
49585;BME280;35491;49.142;9.210;2024-03-02T07:44:21;98760.97;;;7.39;70.14
49585;BME280;35491;49.142;9.210;2024-03-02T07:46:21;98762.34;;;7.43;70.32
49585;BME280;35491;49.142;9.210;2024-03-02T07:48:22;98768.53;;;7.52;70.07
49585;BME280;35491;49.142;9.210;2024-03-02T07:50:23;98764.75;;;7.54;69.99
49585;BME280;35491;49.142;9.210;2024-03-02T07:52:23;98767.22;;;7.56;70.10
49585;BME280;35491;49.142;9.210;2024-03-02T07:54:24;98763.28;;;7.60;70.00
49585;BME280;35491;49.142;9.210;2024-03-02T07:56:24;98762.34;;;7.69;69.70
49585;BME280;35491;49.142;9.210;2024-03-02T07:58:25;98767.78;;;7.68;69.59
49585;BME280;35491;49.142;9.210;2024-03-02T08:00:26;98775.47;;;7.71;69.73
49585;BME280;35491;49.142;9.210;2024-03-02T08:02:27;98777.47;;;7.77;69.57
49585;BME280;35491;49.142;9.210;2024-03-02T08:04:28;98777.00;;;7.81;69.59
49585;BME280;35491;49.142;9.210;2024-03-02T08:06:28;98776.91;;;7.91;69.39
49585;BME280;35491;49.142;9.210;2024-03-02T08:08:29;98768.44;;;7.96;69.42
49585;BME280;35491;49.142;9.210;2024-03-02T08:10:29;98762.38;;;8.12;69.02
49585;BME280;35491;49.142;9.210;2024-03-02T08:12:30;98771.22;;;8.21;68.89
49585;BME280;35491;49.142;9.210;2024-03-02T08:14:30;98767.88;;;8.19;68.90
49585;BME280;35491;49.142;9.210;2024-03-02T08:16:31;98762.75;;;8.25;68.99
49585;BME280;35491;49.142;9.210;2024-03-02T08:18:32;98766.44;;;8.41;68.82
49585;BME280;35491;49.142;9.210;2024-03-02T08:20:33;98760.13;;;8.42;68.56
49585;BME280;35491;49.142;9.210;2024-03-02T08:22:33;98763.63;;;8.42;68.85
49585;BME280;35491;49.142;9.210;2024-03-02T08:24:34;98764.84;;;8.48;68.74
49585;BME280;35491;49.142;9.210;2024-03-02T08:26:34;98750.88;;;8.63;68.34
49585;BME280;35491;49.142;9.210;2024-03-02T08:28:36;98758.38;;;8.76;68.15
49585;BME280;35491;49.142;9.210;2024-03-02T08:30:42;98754.91;;;8.83;67.86
49585;BME280;35491;49.142;9.210;2024-03-02T08:32:43;98757.94;;;8.97;67.55
49585;BME280;35491;49.142;9.210;2024-03-02T08:34:43;98759.59;;;9.14;67.07
49585;BME280;35491;49.142;9.210;2024-03-02T08:36:44;98744.41;;;9.23;66.82
49585;BME280;35491;49.142;9.210;2024-03-02T08:38:45;98757.41;;;9.34;66.47
49585;BME280;35491;49.142;9.210;2024-03-02T08:40:45;98756.22;;;9.37;66.31
49585;BME280;35491;49.142;9.210;2024-03-02T08:42:46;98761.91;;;9.42;66.11
49585;BME280;35491;49.142;9.210;2024-03-02T08:44:47;98763.56;;;9.51;65.67
49585;BME280;35491;49.142;9.210;2024-03-02T08:46:48;98770.38;;;9.62;65.43
49585;BME280;35491;49.142;9.210;2024-03-02T08:48:48;98762.19;;;9.64;65.39
49585;BME280;35491;49.142;9.210;2024-03-02T08:50:49;98755.81;;;9.73;65.33
49585;BME280;35491;49.142;9.210;2024-03-02T08:52:50;98754.78;;;9.91;64.97
49585;BME280;35491;49.142;9.210;2024-03-02T08:54:50;98748.19;;;10.10;64.54
49585;BME280;35491;49.142;9.210;2024-03-02T08:56:50;98750.03;;;10.09;64.21
49585;BME280;35491;49.142;9.210;2024-03-02T08:58:52;98751.94;;;9.92;63.86
49585;BME280;35491;49.142;9.210;2024-03-02T09:00:52;98751.34;;;10.13;63.41
49585;BME280;35491;49.142;9.210;2024-03-02T09:02:53;98749.44;;;10.30;63.14
49585;BME280;35491;49.142;9.210;2024-03-02T09:04:54;98740.31;;;10.56;62.54
49585;BME280;35491;49.142;9.210;2024-03-02T09:06:54;98745.97;;;10.61;62.13
49585;BME280;35491;49.142;9.210;2024-03-02T09:08:55;98747.66;;;10.86;61.78
49585;BME280;35491;49.142;9.210;2024-03-02T09:10:56;98740.13;;;11.28;60.95
49585;BME280;35491;49.142;9.210;2024-03-02T09:12:56;98745.97;;;11.61;60.73
49585;BME280;35491;49.142;9.210;2024-03-02T09:14:57;98736.13;;;12.07;59.85
49585;BME280;35491;49.142;9.210;2024-03-02T09:16:58;98731.34;;;12.24;59.06
49585;BME280;35491;49.142;9.210;2024-03-02T09:18:58;98724.00;;;12.11;59.17
49585;BME280;35491;49.142;9.210;2024-03-02T09:20:59;98724.78;;;12.41;58.37
49585;BME280;35491;49.142;9.210;2024-03-02T09:22:59;98729.09;;;12.79;58.05
49585;BME280;35491;49.142;9.210;2024-03-02T09:25:02;98725.25;;;13.10;56.83
49585;BME280;35491;49.142;9.210;2024-03-02T09:27:03;98721.31;;;13.34;56.34
49585;BME280;35491;49.142;9.210;2024-03-02T09:29:03;98716.09;;;13.89;54.79
49585;BME280;35491;49.142;9.210;2024-03-02T09:31:04;98719.78;;;14.37;53.97
49585;BME280;35491;49.142;9.210;2024-03-02T09:33:04;98718.00;;;14.58;53.09
49585;BME280;35491;49.142;9.210;2024-03-02T09:35:05;98703.81;;;14.91;51.98
49585;BME280;35491;49.142;9.210;2024-03-02T09:37:07;98706.31;;;14.99;51.68
49585;BME280;35491;49.142;9.210;2024-03-02T09:39:08;98709.38;;;14.76;50.57
49585;BME280;35491;49.142;9.210;2024-03-02T09:41:12;98707.38;;;14.36;49.97
49585;BME280;35491;49.142;9.210;2024-03-02T09:43:13;98704.44;;;14.17;50.20
49585;BME280;35491;49.142;9.210;2024-03-02T09:45:14;98713.22;;;14.46;47.87
49585;BME280;35491;49.142;9.210;2024-03-02T09:47:15;98708.50;;;14.62;48.73
49585;BME280;35491;49.142;9.210;2024-03-02T09:49:15;98704.63;;;14.85;46.56
49585;BME280;35491;49.142;9.210;2024-03-02T09:51:16;98703.00;;;15.10;47.86
49585;BME280;35491;49.142;9.210;2024-03-02T09:53:19;98700.47;;;15.42;47.46
49585;BME280;35491;49.142;9.210;2024-03-02T09:55:20;98700.66;;;15.61;46.92
49585;BME280;35491;49.142;9.210;2024-03-02T09:57:21;98698.19;;;15.53;44.48
49585;BME280;35491;49.142;9.210;2024-03-02T09:59:22;98706.44;;;15.85;46.41
49585;BME280;35491;49.142;9.210;2024-03-02T10:01:22;98703.91;;;16.03;45.65
49585;BME280;35491;49.142;9.210;2024-03-02T10:03:23;98698.28;;;16.05;43.52
49585;BME280;35491;49.142;9.210;2024-03-02T10:05:25;98692.00;;;16.18;44.87
49585;BME280;35491;49.142;9.210;2024-03-02T10:07:28;98693.50;;;16.46;44.58
49585;BME280;35491;49.142;9.210;2024-03-02T10:09:28;98690.06;;;16.71;42.18
49585;BME280;35491;49.142;9.210;2024-03-02T10:11:33;98677.31;;;17.10;43.06
49585;BME280;35491;49.142;9.210;2024-03-02T10:13:36;98672.91;;;17.59;42.58
49585;BME280;35491;49.142;9.210;2024-03-02T10:15:37;98678.47;;;17.46;39.40
49585;BME280;35491;49.142;9.210;2024-03-02T10:17:38;98673.28;;;17.82;41.74
49585;BME280;35491;49.142;9.210;2024-03-02T10:19:38;98671.25;;;17.14;39.71
49585;BME280;35491;49.142;9.210;2024-03-02T10:21:40;98668.16;;;17.92;40.97
49585;BME280;35491;49.142;9.210;2024-03-02T10:23:41;98668.41;;;17.72;41.27
49585;BME280;35491;49.142;9.210;2024-03-02T10:25:41;98659.56;;;18.02;37.96
49585;BME280;35491;49.142;9.210;2024-03-02T10:27:42;98657.38;;;18.11;40.25
49585;BME280;35491;49.142;9.210;2024-03-02T10:29:42;98662.81;;;17.29;39.67
49585;BME280;35491;49.142;9.210;2024-03-02T10:31:46;98664.81;;;17.59;40.64
49585;BME280;35491;49.142;9.210;2024-03-02T10:33:47;98663.53;;;17.62;40.28
49585;BME280;35491;49.142;9.210;2024-03-02T10:35:49;98656.06;;;18.32;39.02
49585;BME280;35491;49.142;9.210;2024-03-02T10:37:50;98656.06;;;18.32;39.09
49585;BME280;35491;49.142;9.210;2024-03-02T10:39:52;98662.53;;;18.31;38.69
49585;BME280;35491;49.142;9.210;2024-03-02T10:41:53;98655.47;;;18.72;38.22
49585;BME280;35491;49.142;9.210;2024-03-02T10:43:54;98650.13;;;18.96;37.87
49585;BME280;35491;49.142;9.210;2024-03-02T10:45:59;98654.31;;;18.92;37.69
49585;BME280;35491;49.142;9.210;2024-03-02T10:48:01;98647.19;;;19.09;37.21
49585;BME280;35491;49.142;9.210;2024-03-02T10:50:04;98635.19;;;19.41;36.62
49585;BME280;35491;49.142;9.210;2024-03-02T10:52:08;98627.69;;;19.84;36.36